ARG0504 SABE-SANT
Flight info
| Callsign | ARG0504 |
|---|---|
| Flight time | 1h 44m |
| Altitude | FL360 |
| Route | BIVA4B BIVAM UW8 ERE UT680 ANGEN |
| Aircraft | MD82/M-VGDW/C |
Departure
| Time | 2026-04-20 19:23 |
|---|---|
| Airport | Aeroparque Jorge Newbery (SABE) |
Arrival
| Time | 2026-04-20 21:08 |
|---|---|
| Airport | Teniente Benjamín Matienzo International Airport (SANT) |
| Time | Latitude | Longitude | Altitude | Speed | Heading |
|---|---|---|---|---|---|
| 2026-04-20 18:45 | -34.55784 | -58.41487 | 26 ft | 0 kts | 207° |
| 2026-04-20 18:55 | -34.55784 | -58.41486 | 26 ft | 0 kts | 207° |
| 2026-04-20 19:14 | -34.55780 | -58.41484 | 26 ft | 2 kts | 207° |
| 2026-04-20 19:15 | -34.55766 | -58.41475 | 31 ft | 2 kts | 207° |
| 2026-04-20 19:15 | -34.55751 | -58.41466 | 29 ft | 2 kts | 207° |
| 2026-04-20 19:15 | -34.55737 | -58.41457 | 30 ft | 1 kts | 207° |
| 2026-04-20 19:16 | -34.55739 | -58.41459 | 30 ft | 1 kts | 213° |
| 2026-04-20 19:16 | -34.55744 | -58.41469 | 29 ft | 1 kts | 245° |
| 2026-04-20 19:16 | -34.55744 | -58.41481 | 30 ft | 2 kts | 277° |
| 2026-04-20 19:17 | -34.55739 | -58.41492 | 28 ft | 2 kts | 310° |
| 2026-04-20 19:17 | -34.55729 | -58.41507 | 28 ft | 3 kts | 300° |
| 2026-04-20 19:17 | -34.55726 | -58.41529 | 27 ft | 3 kts | 263° |
| 2026-04-20 19:17 | -34.55737 | -58.41551 | 30 ft | 3 kts | 230° |
| 2026-04-20 19:18 | -34.55755 | -58.41572 | 26 ft | 4 kts | 222° |
| 2026-04-20 19:18 | -34.55774 | -58.41604 | 27 ft | 5 kts | 255° |
| 2026-04-20 19:18 | -34.55772 | -58.41642 | 26 ft | 5 kts | 277° |
| 2026-04-20 19:18 | -34.55752 | -58.41709 | 27 ft | 12 kts | 295° |
| 2026-04-20 19:19 | -34.55709 | -58.41803 | 28 ft | 13 kts | 301° |
| 2026-04-20 19:19 | -34.55657 | -58.41899 | 28 ft | 14 kts | 304° |
| 2026-04-20 19:19 | -34.55599 | -58.42003 | 26 ft | 17 kts | 303° |
| 2026-04-20 19:19 | -34.55509 | -58.42152 | 27 ft | 24 kts | 306° |
| 2026-04-20 19:20 | -34.55426 | -58.42285 | 26 ft | 11 kts | 307° |
| 2026-04-20 19:20 | -34.55383 | -58.42356 | 26 ft | 7 kts | 300° |
| 2026-04-20 19:20 | -34.55380 | -58.42363 | 28 ft | 2 kts | 299° |
| 2026-04-20 19:20 | -34.55373 | -58.42379 | 30 ft | 2 kts | 289° |
| 2026-04-20 19:21 | -34.55371 | -58.42389 | 29 ft | 2 kts | 281° |
| 2026-04-20 19:21 | -34.55370 | -58.42395 | 28 ft | 2 kts | 281° |
| 2026-04-20 19:21 | -34.55366 | -58.42421 | 26 ft | 4 kts | 280° |
| 2026-04-20 19:22 | -34.55368 | -58.42473 | 26 ft | 9 kts | 243° |
| 2026-04-20 19:22 | -34.55406 | -58.42491 | 26 ft | 6 kts | 156° |
| 2026-04-20 19:22 | -34.55417 | -58.42479 | 27 ft | 0 kts | 130° |
| 2026-04-20 19:23 | -34.55442 | -58.42442 | 27 ft | 23 kts | 127° |
| 2026-04-20 19:23 | -34.55675 | -58.42024 | 27 ft | 94 kts | 124° |
| 2026-04-20 19:23 | -34.56162 | -58.41193 | 134 ft | 138 kts | 127° |
| 2026-04-20 19:23 | -34.56775 | -58.40284 | 838 ft | 139 kts | 133° |
| 2026-04-20 19:24 | -34.57463 | -58.39427 | 1424 ft | 150 kts | 124° |
| 2026-04-20 19:24 | -34.58098 | -58.38298 | 1648 ft | 181 kts | 122° |
| 2026-04-20 19:24 | -34.58647 | -58.36803 | 1811 ft | 205 kts | 91° |
| 2026-04-20 19:24 | -34.58130 | -58.35172 | 2305 ft | 224 kts | 46° |
| 2026-04-20 19:25 | -34.56717 | -58.34226 | 2866 ft | 247 kts | 21° |
| 2026-04-20 19:25 | -34.55012 | -58.33510 | 3420 ft | 273 kts | 23° |
| 2026-04-20 19:25 | -34.53350 | -58.32234 | 3969 ft | 297 kts | 39° |
| 2026-04-20 19:25 | -34.51738 | -58.30524 | 4484 ft | 321 kts | 40° |
| 2026-04-20 19:26 | -34.49913 | -58.28818 | 4977 ft | 342 kts | 27° |
| 2026-04-20 19:26 | -34.47619 | -58.27998 | 5491 ft | 348 kts | 3° |
| 2026-04-20 19:26 | -34.45258 | -58.28402 | 6240 ft | 343 kts | 339° |
| 2026-04-20 19:26 | -34.43257 | -58.29839 | 7389 ft | 327 kts | 323° |
| 2026-04-20 19:27 | -34.41528 | -58.31489 | 8695 ft | 307 kts | 321° |
| 2026-04-20 19:27 | -34.39901 | -58.33030 | 9988 ft | 288 kts | 321° |
| 2026-04-20 19:27 | -34.38364 | -58.34483 | 10970 ft | 278 kts | 321° |
| 2026-04-20 19:27 | -34.36838 | -58.35910 | 11646 ft | 279 kts | 321° |
| 2026-04-20 19:28 | -34.35410 | -58.37220 | 12182 ft | 282 kts | 322° |
| 2026-04-20 19:28 | -34.33820 | -58.38636 | 12745 ft | 287 kts | 323° |
| 2026-04-20 19:28 | -34.32185 | -58.40049 | 13268 ft | 292 kts | 323° |
| 2026-04-20 19:28 | -34.30516 | -58.41465 | 13835 ft | 296 kts | 324° |
| 2026-04-20 19:29 | -34.29385 | -58.42413 | 14187 ft | 297 kts | 324° |
| 2026-04-20 19:29 | -34.27683 | -58.43828 | 14708 ft | 299 kts | 324° |
| 2026-04-20 19:29 | -34.25382 | -58.45728 | 15391 ft | 303 kts | 324° |
| 2026-04-20 19:29 | -34.23637 | -58.47166 | 15895 ft | 305 kts | 324° |
| 2026-04-20 19:30 | -34.22466 | -58.48132 | 16237 ft | 307 kts | 324° |
| 2026-04-20 19:30 | -34.20120 | -58.50067 | 16944 ft | 308 kts | 323° |
| 2026-04-20 19:30 | -34.18938 | -58.51044 | 17263 ft | 310 kts | 324° |
| 2026-04-20 19:30 | -34.16631 | -58.52948 | 17902 ft | 313 kts | 323° |
| 2026-04-20 19:31 | -34.15434 | -58.53937 | 18219 ft | 315 kts | 323° |
| 2026-04-20 19:31 | -34.13339 | -58.56307 | 18858 ft | 309 kts | 298° |
| 2026-04-20 19:31 | -34.12817 | -58.57890 | 19275 ft | 304 kts | 281° |
| 2026-04-20 19:31 | -34.12818 | -58.61234 | 20126 ft | 297 kts | 266° |
| 2026-04-20 19:32 | -34.12967 | -58.62871 | 20553 ft | 293 kts | 266° |
| 2026-04-20 19:32 | -34.13310 | -58.66058 | 21433 ft | 282 kts | 264° |
| 2026-04-20 19:32 | -34.13500 | -58.67600 | 21885 ft | 277 kts | 264° |
| 2026-04-20 19:32 | -34.13796 | -58.69847 | 22575 ft | 266 kts | 264° |
| 2026-04-20 19:33 | -34.14081 | -58.72003 | 23287 ft | 255 kts | 265° |
| 2026-04-20 19:33 | -34.14429 | -58.74721 | 24139 ft | 237 kts | 266° |
| 2026-04-20 19:33 | -34.14588 | -58.75997 | 24528 ft | 227 kts | 266° |
| 2026-04-20 19:33 | -34.14876 | -58.78380 | 25356 ft | 203 kts | 270° |
| 2026-04-20 19:34 | -34.14796 | -58.80010 | 25697 ft | 194 kts | 291° |
| 2026-04-20 19:34 | -34.14420 | -58.80993 | 25797 ft | 195 kts | 305° |
| 2026-04-20 19:34 | -34.13100 | -58.82484 | 26012 ft | 202 kts | 316° |
| 2026-04-20 19:34 | -34.11937 | -58.83651 | 25559 ft | 234 kts | 318° |
| 2026-04-20 19:35 | -34.10611 | -58.84706 | 26010 ft | 225 kts | 334° |
| 2026-04-20 19:35 | -34.09151 | -58.85315 | 26440 ft | 218 kts | 337° |
| 2026-04-20 19:35 | -34.08210 | -58.85686 | 26639 ft | 213 kts | 326° |
| 2026-04-20 19:35 | -34.06521 | -58.86961 | 26658 ft | 219 kts | 320° |
| 2026-04-20 19:36 | -34.05693 | -58.87685 | 26765 ft | 220 kts | 319° |
| 2026-04-20 19:36 | -34.04456 | -58.88811 | 26835 ft | 227 kts | 319° |
| 2026-04-20 19:36 | -34.02713 | -58.90367 | 26846 ft | 242 kts | 320° |
| 2026-04-20 19:36 | -34.01304 | -58.91552 | 26843 ft | 253 kts | 321° |
| 2026-04-20 19:37 | -34.00317 | -58.92349 | 26845 ft | 261 kts | 322° |
| 2026-04-20 19:37 | -33.98768 | -58.93557 | 26839 ft | 271 kts | 323° |
| 2026-04-20 19:37 | -33.97139 | -58.94787 | 26838 ft | 282 kts | 323° |
| 2026-04-20 19:37 | -33.95444 | -58.96041 | 26853 ft | 291 kts | 324° |
| 2026-04-20 19:38 | -33.93686 | -58.97318 | 26879 ft | 301 kts | 324° |
| 2026-04-20 19:38 | -33.91248 | -58.99069 | 26907 ft | 314 kts | 324° |
| 2026-04-20 19:38 | -33.89355 | -59.00423 | 27000 ft | 321 kts | 325° |
| 2026-04-20 19:38 | -33.88062 | -59.01346 | 27080 ft | 326 kts | 325° |
| 2026-04-20 19:39 | -33.86098 | -59.02749 | 27203 ft | 333 kts | 325° |
| 2026-04-20 19:39 | -33.84096 | -59.04184 | 27323 ft | 338 kts | 324° |
| 2026-04-20 19:39 | -33.82082 | -59.05633 | 27445 ft | 338 kts | 325° |
| 2026-04-20 19:39 | -33.79407 | -59.07555 | 27757 ft | 335 kts | 324° |
| 2026-04-20 19:40 | -33.77409 | -59.09000 | 28007 ft | 337 kts | 324° |
| 2026-04-20 19:40 | -33.75404 | -59.10455 | 28263 ft | 338 kts | 324° |
| 2026-04-20 19:40 | -33.73391 | -59.11913 | 28525 ft | 339 kts | 325° |
| 2026-04-20 19:40 | -33.72046 | -59.12885 | 28698 ft | 340 kts | 324° |
| 2026-04-20 19:41 | -33.70019 | -59.14352 | 28965 ft | 341 kts | 324° |
| 2026-04-20 19:41 | -33.67311 | -59.16315 | 29319 ft | 342 kts | 325° |
| 2026-04-20 19:41 | -33.65276 | -59.17789 | 29591 ft | 343 kts | 325° |
| 2026-04-20 19:41 | -33.63914 | -59.18776 | 29772 ft | 344 kts | 325° |
| 2026-04-20 19:42 | -33.61182 | -59.20754 | 30110 ft | 345 kts | 325° |
| 2026-04-20 19:42 | -33.59811 | -59.21744 | 30284 ft | 346 kts | 325° |
| 2026-04-20 19:42 | -33.57756 | -59.23227 | 30510 ft | 346 kts | 325° |
| 2026-04-20 19:42 | -33.55699 | -59.24711 | 30743 ft | 346 kts | 325° |
| 2026-04-20 19:43 | -33.52956 | -59.26693 | 31055 ft | 346 kts | 326° |
| 2026-04-20 19:43 | -33.50900 | -59.28177 | 31296 ft | 346 kts | 325° |
| 2026-04-20 19:43 | -33.48839 | -59.29664 | 31534 ft | 347 kts | 326° |
| 2026-04-20 19:43 | -33.46776 | -59.31154 | 31778 ft | 347 kts | 326° |
| 2026-04-20 19:44 | -33.44710 | -59.32646 | 32031 ft | 348 kts | 326° |
| 2026-04-20 19:44 | -33.42639 | -59.34140 | 32273 ft | 348 kts | 326° |
| 2026-04-20 19:44 | -33.40566 | -59.35636 | 32523 ft | 349 kts | 326° |
| 2026-04-20 19:44 | -33.38491 | -59.37134 | 32775 ft | 349 kts | 326° |
| 2026-04-20 19:45 | -33.36413 | -59.38630 | 33028 ft | 350 kts | 326° |
| 2026-04-20 19:45 | -33.34328 | -59.40131 | 33287 ft | 350 kts | 327° |
| 2026-04-20 19:45 | -33.32241 | -59.41634 | 33549 ft | 351 kts | 327° |
| 2026-04-20 19:45 | -33.30153 | -59.43135 | 33805 ft | 352 kts | 327° |
| 2026-04-20 19:46 | -33.28056 | -59.44638 | 34054 ft | 352 kts | 327° |
| 2026-04-20 19:46 | -33.25959 | -59.46142 | 34281 ft | 353 kts | 327° |
| 2026-04-20 19:46 | -33.23859 | -59.47646 | 34506 ft | 353 kts | 327° |
| 2026-04-20 19:46 | -33.21759 | -59.49149 | 34737 ft | 353 kts | 327° |
| 2026-04-20 19:47 | -33.19658 | -59.50649 | 34967 ft | 352 kts | 327° |
| 2026-04-20 19:47 | -33.17550 | -59.52154 | 35088 ft | 355 kts | 326° |
| 2026-04-20 19:47 | -33.15427 | -59.53674 | 35188 ft | 358 kts | 326° |
| 2026-04-20 19:47 | -33.13308 | -59.55196 | 35323 ft | 361 kts | 326° |
| 2026-04-20 19:48 | -33.11128 | -59.56758 | 35436 ft | 364 kts | 326° |
| 2026-04-20 19:48 | -33.08949 | -59.58313 | 35555 ft | 367 kts | 326° |
| 2026-04-20 19:48 | -33.06758 | -59.59880 | 35674 ft | 370 kts | 326° |
| 2026-04-20 19:48 | -33.04546 | -59.61460 | 35794 ft | 373 kts | 326° |
| 2026-04-20 19:49 | -33.02317 | -59.63053 | 35881 ft | 376 kts | 326° |
| 2026-04-20 19:49 | -32.97785 | -59.66292 | 35942 ft | 385 kts | 326° |
| 2026-04-20 19:50 | -32.93198 | -59.69564 | 35961 ft | 383 kts | 326° |
| 2026-04-20 19:50 | -32.88649 | -59.72800 | 35964 ft | 380 kts | 326° |
| 2026-04-20 19:51 | -32.84117 | -59.76016 | 35966 ft | 381 kts | 327° |
| 2026-04-20 19:51 | -32.79568 | -59.79240 | 35956 ft | 382 kts | 326° |
| 2026-04-20 19:52 | -32.75009 | -59.82474 | 35948 ft | 383 kts | 326° |
| 2026-04-20 19:52 | -32.70439 | -59.85716 | 35953 ft | 384 kts | 326° |
| 2026-04-20 19:53 | -32.65861 | -59.88956 | 35955 ft | 384 kts | 326° |
| 2026-04-20 19:53 | -32.61288 | -59.92193 | 35949 ft | 383 kts | 326° |
| 2026-04-20 19:54 | -32.56697 | -59.95408 | 35952 ft | 384 kts | 327° |
| 2026-04-20 19:54 | -32.52083 | -59.98630 | 35948 ft | 387 kts | 327° |
| 2026-04-20 19:55 | -32.47457 | -60.01892 | 35951 ft | 389 kts | 326° |
| 2026-04-20 19:55 | -32.42813 | -60.05171 | 35949 ft | 390 kts | 326° |
| 2026-04-20 19:56 | -32.38929 | -60.07911 | 35950 ft | 390 kts | 326° |
| 2026-04-20 19:56 | -32.33506 | -60.11728 | 35946 ft | 388 kts | 326° |
| 2026-04-20 19:57 | -32.28877 | -60.14985 | 35945 ft | 389 kts | 327° |
| 2026-04-20 19:57 | -32.24227 | -60.18243 | 35945 ft | 390 kts | 326° |
| 2026-04-20 19:58 | -32.19562 | -60.21507 | 35942 ft | 391 kts | 326° |
| 2026-04-20 19:58 | -32.14887 | -60.24768 | 35938 ft | 392 kts | 327° |
| 2026-04-20 19:59 | -32.10202 | -60.28033 | 35940 ft | 393 kts | 326° |
| 2026-04-20 19:59 | -32.05501 | -60.31312 | 35942 ft | 393 kts | 326° |
| 2026-04-20 20:00 | -32.00797 | -60.34596 | 35947 ft | 394 kts | 326° |
| 2026-04-20 20:00 | -31.96083 | -60.37876 | 35952 ft | 395 kts | 326° |
| 2026-04-20 20:01 | -31.91366 | -60.41154 | 35953 ft | 395 kts | 326° |
| 2026-04-20 20:01 | -31.86646 | -60.44411 | 35963 ft | 393 kts | 326° |
| 2026-04-20 20:02 | -31.81971 | -60.47698 | 35969 ft | 392 kts | 326° |
| 2026-04-20 20:02 | -31.77321 | -60.51061 | 35968 ft | 394 kts | 324° |
| 2026-04-20 20:03 | -31.72745 | -60.54584 | 35966 ft | 395 kts | 323° |
| 2026-04-20 20:03 | -31.68162 | -60.58126 | 35955 ft | 396 kts | 324° |
| 2026-04-20 20:04 | -31.63557 | -60.61649 | 35934 ft | 396 kts | 324° |
| 2026-04-20 20:04 | -31.58943 | -60.65157 | 35933 ft | 396 kts | 324° |
| 2026-04-20 20:05 | -31.55101 | -60.68070 | 35930 ft | 395 kts | 324° |
| 2026-04-20 20:05 | -31.50498 | -60.71561 | 35930 ft | 396 kts | 324° |
| 2026-04-20 20:06 | -31.45877 | -60.75063 | 35928 ft | 397 kts | 324° |
| 2026-04-20 20:06 | -31.41247 | -60.78562 | 35926 ft | 397 kts | 324° |
| 2026-04-20 20:07 | -31.36603 | -60.82066 | 35922 ft | 398 kts | 324° |
| 2026-04-20 20:07 | -31.31956 | -60.85570 | 35921 ft | 399 kts | 324° |
| 2026-04-20 20:08 | -31.27305 | -60.89076 | 35919 ft | 398 kts | 324° |
| 2026-04-20 20:08 | -31.22671 | -60.92568 | 35920 ft | 397 kts | 324° |
| 2026-04-20 20:09 | -31.18044 | -60.96052 | 35921 ft | 397 kts | 324° |
| 2026-04-20 20:09 | -31.13400 | -60.99541 | 35921 ft | 398 kts | 324° |
| 2026-04-20 20:10 | -31.08741 | -61.03042 | 35918 ft | 399 kts | 323° |
| 2026-04-20 20:10 | -31.04082 | -61.06548 | 35920 ft | 400 kts | 323° |
| 2026-04-20 20:11 | -30.99407 | -61.10035 | 35925 ft | 401 kts | 324° |
| 2026-04-20 20:11 | -30.94707 | -61.13519 | 35924 ft | 401 kts | 323° |
| 2026-04-20 20:12 | -30.90004 | -61.17017 | 35919 ft | 402 kts | 323° |
| 2026-04-20 20:12 | -30.85308 | -61.20517 | 35923 ft | 401 kts | 323° |
| 2026-04-20 20:13 | -30.78279 | -61.25746 | 35925 ft | 400 kts | 323° |
| 2026-04-20 20:13 | -30.73593 | -61.29227 | 35917 ft | 401 kts | 323° |
| 2026-04-20 20:14 | -30.68892 | -61.32723 | 35919 ft | 402 kts | 323° |
| 2026-04-20 20:14 | -30.64172 | -61.36215 | 35917 ft | 403 kts | 323° |
| 2026-04-20 20:15 | -30.59445 | -61.39702 | 35918 ft | 404 kts | 323° |
| 2026-04-20 20:15 | -30.54710 | -61.43197 | 35921 ft | 404 kts | 323° |
| 2026-04-20 20:16 | -30.49968 | -61.46696 | 35923 ft | 405 kts | 323° |
| 2026-04-20 20:16 | -30.45232 | -61.50189 | 35922 ft | 404 kts | 323° |
| 2026-04-20 20:17 | -30.40511 | -61.53666 | 35924 ft | 403 kts | 323° |
| 2026-04-20 20:17 | -30.35784 | -61.57146 | 35926 ft | 404 kts | 323° |
| 2026-04-20 20:18 | -30.31046 | -61.60631 | 35926 ft | 405 kts | 323° |
| 2026-04-20 20:18 | -30.26294 | -61.64109 | 35925 ft | 405 kts | 322° |
| 2026-04-20 20:19 | -30.21534 | -61.67589 | 35929 ft | 406 kts | 323° |
| 2026-04-20 20:19 | -30.16767 | -61.71073 | 35926 ft | 406 kts | 322° |
| 2026-04-20 20:20 | -30.12005 | -61.74554 | 35927 ft | 405 kts | 322° |
| 2026-04-20 20:20 | -30.07258 | -61.78019 | 35927 ft | 404 kts | 322° |
| 2026-04-20 20:21 | -30.02511 | -61.81489 | 35928 ft | 405 kts | 322° |
| 2026-04-20 20:21 | -29.97755 | -61.84959 | 35930 ft | 406 kts | 322° |
| 2026-04-20 20:22 | -29.92996 | -61.88435 | 35932 ft | 406 kts | 322° |
| 2026-04-20 20:22 | -29.88224 | -61.91912 | 35933 ft | 407 kts | 322° |
| 2026-04-20 20:23 | -29.83926 | -61.95999 | 35928 ft | 400 kts | 311° |
| 2026-04-20 20:23 | -29.79979 | -62.00487 | 35939 ft | 399 kts | 311° |
| 2026-04-20 20:24 | -29.76021 | -62.04941 | 35941 ft | 398 kts | 311° |
| 2026-04-20 20:24 | -29.72035 | -62.09329 | 35930 ft | 397 kts | 311° |
| 2026-04-20 20:25 | -29.68024 | -62.13690 | 35933 ft | 398 kts | 311° |
| 2026-04-20 20:25 | -29.64008 | -62.18050 | 35938 ft | 398 kts | 312° |
| 2026-04-20 20:26 | -29.59997 | -62.22407 | 35930 ft | 398 kts | 311° |
| 2026-04-20 20:26 | -29.55991 | -62.26765 | 35939 ft | 397 kts | 311° |
| 2026-04-20 20:27 | -29.51979 | -62.31110 | 35933 ft | 397 kts | 312° |
| 2026-04-20 20:27 | -29.47963 | -62.35450 | 35937 ft | 397 kts | 311° |
| 2026-04-20 20:28 | -29.43952 | -62.39791 | 35934 ft | 397 kts | 311° |
| 2026-04-20 20:28 | -29.39947 | -62.44123 | 35944 ft | 397 kts | 311° |
| 2026-04-20 20:29 | -29.35943 | -62.48456 | 35938 ft | 397 kts | 311° |
| 2026-04-20 20:29 | -29.31935 | -62.52781 | 35931 ft | 396 kts | 311° |
| 2026-04-20 20:30 | -29.27929 | -62.57107 | 35945 ft | 396 kts | 311° |
| 2026-04-20 20:30 | -29.23918 | -62.61416 | 35948 ft | 396 kts | 311° |
| 2026-04-20 20:31 | -29.19899 | -62.65705 | 35938 ft | 396 kts | 311° |
| 2026-04-20 20:31 | -29.15889 | -62.70003 | 35947 ft | 396 kts | 311° |
| 2026-04-20 20:32 | -29.11888 | -62.74305 | 35944 ft | 395 kts | 311° |
| 2026-04-20 20:32 | -29.07893 | -62.78604 | 35942 ft | 395 kts | 311° |
| 2026-04-20 20:33 | -29.03900 | -62.82899 | 35943 ft | 395 kts | 311° |
| 2026-04-20 20:33 | -28.99905 | -62.87188 | 35939 ft | 395 kts | 311° |
| 2026-04-20 20:34 | -28.95890 | -62.91454 | 35942 ft | 395 kts | 311° |
| 2026-04-20 20:34 | -28.91882 | -62.95702 | 35943 ft | 393 kts | 311° |
| 2026-04-20 20:35 | -28.87901 | -62.99944 | 35943 ft | 392 kts | 311° |
| 2026-04-20 20:35 | -28.83925 | -63.04191 | 35941 ft | 393 kts | 311° |
| 2026-04-20 20:36 | -28.79938 | -63.08445 | 35941 ft | 393 kts | 311° |
| 2026-04-20 20:36 | -28.75945 | -63.12695 | 35942 ft | 394 kts | 311° |
| 2026-04-20 20:37 | -28.71946 | -63.16945 | 35944 ft | 394 kts | 311° |
| 2026-04-20 20:37 | -28.67938 | -63.21183 | 35944 ft | 394 kts | 311° |
| 2026-04-20 20:38 | -28.63935 | -63.25435 | 35944 ft | 394 kts | 311° |
| 2026-04-20 20:38 | -28.59923 | -63.29678 | 35944 ft | 394 kts | 311° |
| 2026-04-20 20:39 | -28.55919 | -63.33907 | 35940 ft | 393 kts | 311° |
| 2026-04-20 20:39 | -28.51928 | -63.38119 | 35938 ft | 392 kts | 311° |
| 2026-04-20 20:40 | -28.47939 | -63.42328 | 35938 ft | 392 kts | 311° |
| 2026-04-20 20:40 | -28.43944 | -63.46543 | 35940 ft | 393 kts | 311° |
| 2026-04-20 20:41 | -28.39944 | -63.50757 | 35937 ft | 393 kts | 311° |
| 2026-04-20 20:41 | -28.35937 | -63.54971 | 35937 ft | 394 kts | 311° |
| 2026-04-20 20:42 | -28.31907 | -63.59165 | 35939 ft | 394 kts | 311° |
| 2026-04-20 20:42 | -28.27881 | -63.63363 | 35940 ft | 393 kts | 311° |
| 2026-04-20 20:43 | -28.23877 | -63.67558 | 35937 ft | 392 kts | 311° |
| 2026-04-20 20:43 | -28.19890 | -63.71742 | 35937 ft | 391 kts | 311° |
| 2026-04-20 20:44 | -28.15902 | -63.75929 | 35936 ft | 392 kts | 311° |
| 2026-04-20 20:44 | -28.11902 | -63.80119 | 35935 ft | 393 kts | 311° |
| 2026-04-20 20:45 | -28.07899 | -63.84309 | 35937 ft | 393 kts | 311° |
| 2026-04-20 20:45 | -28.03877 | -63.88489 | 35936 ft | 393 kts | 311° |
| 2026-04-20 20:46 | -27.99860 | -63.92670 | 35935 ft | 393 kts | 311° |
| 2026-04-20 20:46 | -27.95850 | -63.96863 | 35934 ft | 393 kts | 311° |
| 2026-04-20 20:47 | -27.91846 | -64.01056 | 35940 ft | 393 kts | 311° |
| 2026-04-20 20:47 | -27.87835 | -64.05249 | 35947 ft | 393 kts | 311° |
| 2026-04-20 20:48 | -27.83838 | -64.09422 | 35953 ft | 391 kts | 311° |
| 2026-04-20 20:48 | -27.79853 | -64.13578 | 35957 ft | 391 kts | 311° |
| 2026-04-20 20:49 | -27.75858 | -64.17743 | 35962 ft | 391 kts | 311° |
| 2026-04-20 20:49 | -27.71859 | -64.21893 | 35965 ft | 391 kts | 311° |
| 2026-04-20 20:50 | -27.69853 | -64.23970 | 35753 ft | 396 kts | 311° |
| 2026-04-20 20:50 | -27.67807 | -64.26096 | 35326 ft | 403 kts | 311° |
| 2026-04-20 20:50 | -27.65747 | -64.28231 | 34850 ft | 402 kts | 312° |
| 2026-04-20 20:50 | -27.63696 | -64.30352 | 34340 ft | 401 kts | 311° |
| 2026-04-20 20:51 | -27.61644 | -64.32474 | 33770 ft | 401 kts | 312° |
| 2026-04-20 20:51 | -27.59592 | -64.34600 | 33148 ft | 403 kts | 312° |
| 2026-04-20 20:51 | -27.57523 | -64.36750 | 32541 ft | 408 kts | 312° |
| 2026-04-20 20:51 | -27.55427 | -64.38928 | 31955 ft | 413 kts | 312° |
| 2026-04-20 20:52 | -27.53308 | -64.41125 | 31394 ft | 418 kts | 313° |
| 2026-04-20 20:52 | -27.51155 | -64.43353 | 30830 ft | 422 kts | 313° |
| 2026-04-20 20:52 | -27.48989 | -64.45593 | 30264 ft | 426 kts | 313° |
| 2026-04-20 20:52 | -27.46796 | -64.47858 | 29654 ft | 430 kts | 314° |
| 2026-04-20 20:53 | -27.44587 | -64.50135 | 29030 ft | 433 kts | 314° |
| 2026-04-20 20:53 | -27.42367 | -64.52422 | 28422 ft | 436 kts | 314° |
| 2026-04-20 20:53 | -27.40122 | -64.54733 | 27831 ft | 439 kts | 314° |
| 2026-04-20 20:53 | -27.37870 | -64.57052 | 27254 ft | 442 kts | 314° |
| 2026-04-20 20:54 | -27.35592 | -64.59399 | 26660 ft | 445 kts | 314° |
| 2026-04-20 20:54 | -27.33246 | -64.61663 | 26066 ft | 446 kts | 319° |
| 2026-04-20 20:54 | -27.30774 | -64.63749 | 25439 ft | 443 kts | 321° |
| 2026-04-20 20:54 | -27.28283 | -64.65752 | 24783 ft | 440 kts | 321° |
| 2026-04-20 20:55 | -27.25806 | -64.67734 | 24098 ft | 437 kts | 321° |
| 2026-04-20 20:55 | -27.23351 | -64.69715 | 23361 ft | 434 kts | 321° |
| 2026-04-20 20:55 | -27.20918 | -64.71696 | 22567 ft | 430 kts | 321° |
| 2026-04-20 20:55 | -27.18460 | -64.73561 | 21856 ft | 427 kts | 330° |
| 2026-04-20 20:56 | -27.15666 | -64.74696 | 21197 ft | 430 kts | 342° |
| 2026-04-20 20:56 | -27.12761 | -64.75407 | 20539 ft | 428 kts | 345° |
| 2026-04-20 20:56 | -27.09855 | -64.76027 | 19895 ft | 424 kts | 345° |
| 2026-04-20 20:56 | -27.06993 | -64.76619 | 19254 ft | 421 kts | 345° |
| 2026-04-20 20:57 | -27.04128 | -64.77218 | 18596 ft | 418 kts | 345° |
| 2026-04-20 20:57 | -27.01292 | -64.77827 | 17910 ft | 413 kts | 345° |
| 2026-04-20 20:57 | -26.98488 | -64.78432 | 17203 ft | 409 kts | 345° |
| 2026-04-20 20:57 | -26.95722 | -64.79066 | 16561 ft | 405 kts | 345° |
| 2026-04-20 20:58 | -26.92976 | -64.79728 | 15939 ft | 403 kts | 344° |
| 2026-04-20 20:58 | -26.90257 | -64.80408 | 15324 ft | 401 kts | 345° |
| 2026-04-20 20:58 | -26.87542 | -64.81079 | 14719 ft | 399 kts | 345° |
| 2026-04-20 20:58 | -26.84843 | -64.81723 | 14098 ft | 396 kts | 346° |
| 2026-04-20 20:59 | -26.82154 | -64.82347 | 13436 ft | 394 kts | 347° |
| 2026-04-20 20:59 | -26.79494 | -64.82955 | 12778 ft | 389 kts | 347° |
| 2026-04-20 20:59 | -26.76859 | -64.83552 | 12152 ft | 384 kts | 347° |
| 2026-04-20 20:59 | -26.74262 | -64.84143 | 11555 ft | 380 kts | 347° |
| 2026-04-20 21:00 | -26.71690 | -64.84732 | 11032 ft | 376 kts | 347° |
| 2026-04-20 21:00 | -26.69186 | -64.85312 | 10737 ft | 359 kts | 347° |
| 2026-04-20 21:00 | -26.66815 | -64.85881 | 10547 ft | 334 kts | 343° |
| 2026-04-20 21:00 | -26.64859 | -64.86960 | 10421 ft | 301 kts | 318° |
| 2026-04-20 21:01 | -26.63671 | -64.88722 | 10330 ft | 275 kts | 292° |
| 2026-04-20 21:01 | -26.62972 | -64.90676 | 9770 ft | 271 kts | 294° |
| 2026-04-20 21:01 | -26.62216 | -64.92653 | 8757 ft | 283 kts | 290° |
| 2026-04-20 21:01 | -26.61678 | -64.94756 | 8124 ft | 278 kts | 282° |
| 2026-04-20 21:02 | -26.61374 | -64.96858 | 7600 ft | 272 kts | 277° |
| 2026-04-20 21:02 | -26.61182 | -64.98932 | 7108 ft | 266 kts | 275° |
| 2026-04-20 21:02 | -26.61062 | -65.00965 | 6659 ft | 258 kts | 267° |
| 2026-04-20 21:02 | -26.61525 | -65.02818 | 6324 ft | 245 kts | 235° |
| 2026-04-20 21:03 | -26.62689 | -65.04111 | 5994 ft | 233 kts | 214° |
| 2026-04-20 21:03 | -26.64026 | -65.05078 | 5607 ft | 223 kts | 210° |
| 2026-04-20 21:03 | -26.65338 | -65.05902 | 5236 ft | 210 kts | 206° |
| 2026-04-20 21:03 | -26.66594 | -65.06607 | 4863 ft | 197 kts | 204° |
| 2026-04-20 21:04 | -26.67782 | -65.07226 | 4523 ft | 180 kts | 202° |
| 2026-04-20 21:04 | -26.68909 | -65.07705 | 4315 ft | 170 kts | 192° |
| 2026-04-20 21:04 | -26.70034 | -65.07995 | 4039 ft | 161 kts | 191° |
| 2026-04-20 21:04 | -26.71112 | -65.08201 | 3788 ft | 159 kts | 183° |
| 2026-04-20 21:05 | -26.72200 | -65.08334 | 3554 ft | 157 kts | 187° |
| 2026-04-20 21:05 | -26.73266 | -65.08549 | 3296 ft | 157 kts | 190° |
| 2026-04-20 21:05 | -26.74352 | -65.08732 | 3106 ft | 160 kts | 184° |
| 2026-04-20 21:05 | -26.75458 | -65.08826 | 2860 ft | 156 kts | 178° |
| 2026-04-20 21:06 | -26.76533 | -65.08784 | 2719 ft | 147 kts | 179° |
| 2026-04-20 21:06 | -26.77562 | -65.08873 | 2548 ft | 154 kts | 191° |
| 2026-04-20 21:06 | -26.78630 | -65.09134 | 2378 ft | 159 kts | 191° |
| 2026-04-20 21:06 | -26.79704 | -65.09398 | 2168 ft | 159 kts | 191° |
| 2026-04-20 21:07 | -26.80767 | -65.09635 | 1861 ft | 152 kts | 198° |
| 2026-04-20 21:07 | -26.81768 | -65.10067 | 1684 ft | 158 kts | 193° |
| 2026-04-20 21:07 | -26.82809 | -65.10238 | 1535 ft | 144 kts | 187° |
| 2026-04-20 21:07 | -26.83707 | -65.10411 | 1482 ft | 114 kts | 193° |
| 2026-04-20 21:08 | -26.84291 | -65.10524 | 1479 ft | 51 kts | 190° |
| 2026-04-20 21:08 | -26.84590 | -65.10643 | 1486 ft | 22 kts | 184° |
| 2026-04-20 21:08 | -26.84623 | -65.10628 | 1485 ft | 0 kts | 134° |
| 2026-04-20 21:08 | -26.84619 | -65.10583 | 1478 ft | 12 kts | 52° |
| 2026-04-20 21:09 | -26.84549 | -65.10566 | 1481 ft | 13 kts | 6° |
| 2026-04-20 21:09 | -26.84451 | -65.10549 | 1482 ft | 14 kts | 9° |
| 2026-04-20 21:09 | -26.84362 | -65.10537 | 1480 ft | 12 kts | 7° |
| 2026-04-20 21:09 | -26.84270 | -65.10525 | 1483 ft | 15 kts | 358° |
| 2026-04-20 21:10 | -26.84181 | -65.10548 | 1483 ft | 12 kts | 342° |
| 2026-04-20 21:10 | -26.84109 | -65.10576 | 1489 ft | 11 kts | 340° |
| 2026-04-20 21:10 | -26.84010 | -65.10618 | 1489 ft | 17 kts | 340° |
| 2026-04-20 21:10 | -26.83908 | -65.10658 | 1484 ft | 14 kts | 340° |
| 2026-04-20 21:11 | -26.83823 | -65.10694 | 1486 ft | 12 kts | 339° |
| 2026-04-20 21:11 | -26.83752 | -65.10721 | 1489 ft | 10 kts | 347° |
| 2026-04-20 21:11 | -26.83696 | -65.10723 | 1479 ft | 7 kts | 7° |
| 2026-04-20 21:11 | -26.83665 | -65.10725 | 1483 ft | 3 kts | 334° |
| 2026-04-20 21:12 | -26.83652 | -65.10742 | 1488 ft | 2 kts | 293° |
| 2026-04-20 21:12 | -26.83646 | -65.10763 | 1484 ft | 4 kts | 283° |
| 2026-04-20 21:12 | -26.83645 | -65.10768 | 1483 ft | 0 kts | 282° |